Time;durP1;ratioP1;P1;durP2;ratioP2;P2;SDS_P1;SDS_P2;PMS_P1;PMS_P2;Temp;Humidity;BMP_temperature;BMP_pressure;BME280_temperature;BME280_humidity;BME280_pressure;Samples;Min_cycle;Max_cycle;Signal;HPM_P1;HPM_P2
2021/03/29 00:01:19;;;;;;;10.83;4.80;;;;;;;7.71;79.88;102580.38;5108900;28;20401;-75
2021/03/29 00:03:45;;;;;;;13.65;4.78;;;;;;;7.71;80.16;102575.25;5096160;28;20023;-75
2021/03/29 00:06:10;;;;;;;13.60;4.60;;;;;;;7.74;79.85;102584.00;5091156;28;20085;-74
2021/03/29 00:08:38;;;;;;;13.10;4.88;;;;;;;7.80;79.65;102588.63;5099759;28;20377;-75
2021/03/29 00:11:04;;;;;;;14.47;5.20;;;;;;;7.88;79.31;102582.34;5109945;28;20116;-76
2021/03/29 00:13:30;;;;;;;12.48;4.47;;;;;;;7.82;79.83;102579.41;5098453;28;20111;-74
2021/03/29 00:15:58;;;;;;;13.40;4.90;;;;;;;7.86;79.59;102583.03;5088504;28;20027;-76
2021/03/29 00:18:24;;;;;;;12.37;4.93;;;;;;;7.84;79.24;102582.94;5088666;28;20020;-75
2021/03/29 00:20:54;;;;;;;14.75;4.90;;;;;;;7.80;79.19;102579.31;5087871;28;20027;-75
2021/03/29 00:23:20;;;;;;;16.80;5.07;;;;;;;7.82;79.41;102588.75;5088696;28;20517;-74
2021/03/29 00:25:46;;;;;;;11.50;4.22;;;;;;;7.83;79.35;102588.84;5095067;28;20106;-75
2021/03/29 00:28:11;;;;;;;11.05;4.63;;;;;;;7.78;79.48;102590.22;5108658;28;20110;-75
2021/03/29 00:30:40;;;;;;;12.27;4.50;;;;;;;7.76;79.60;102577.31;5108345;28;20027;-74
2021/03/29 00:33:07;;;;;;;15.00;4.70;;;;;;;7.83;79.39;102581.16;5091911;28;20110;-75
2021/03/29 00:35:38;;;;;;;11.40;4.50;;;;;;;7.80;79.39;102584.44;5088949;28;20050;-75
2021/03/29 00:38:07;;;;;;;12.53;4.37;;;;;;;7.86;79.16;102583.91;5092537;28;20114;-74
2021/03/29 00:40:32;;;;;;;19.40;5.43;;;;;;;7.79;79.22;102574.06;5109416;28;20488;-75
2021/03/29 00:43:01;;;;;;;11.52;4.50;;;;;;;7.96;78.57;102576.00;5103100;28;20109;-74
2021/03/29 00:45:27;;;;;;;10.20;4.37;;;;;;;7.88;78.88;102574.66;5089575;28;20024;-76
2021/03/29 00:47:54;;;;;;;;;;;;;;;7.94;78.35;102572.47;5088547;28;20048;-74
2021/03/29 00:50:41;;;;;;;14.15;5.38;;;;;;;7.94;78.29;102562.25;5088063;28;20418;-72
2021/03/29 00:53:06;;;;;;;10.73;4.63;;;;;;;7.98;78.42;102559.06;5088271;28;20129;-74
2021/03/29 00:55:32;;;;;;;12.50;4.82;;;;;;;7.97;78.33;102567.53;5089452;28;20393;-74
2021/03/29 00:57:59;;;;;;;14.37;5.20;;;;;;;8.02;78.14;102563.59;5099713;28;20381;-74
2021/03/29 01:00:39;;;;;;;13.30;4.97;;;;;;;7.93;78.73;102567.25;5108419;28;20628;-74
2021/03/29 01:03:12;;;;;;;15.10;5.00;;;;;;;7.97;78.33;102566.66;5095474;28;20062;-74
2021/03/29 01:05:37;;;;;;;17.33;5.57;;;;;;;8.04;78.17;102577.34;5110116;28;20027;-75
2021/03/29 01:08:04;;;;;;;14.23;5.97;;;;;;;8.01;78.10;102581.41;5108458;28;20095;-75
2021/03/29 01:10:29;;;;;;;16.07;5.50;;;;;;;7.95;77.87;102584.47;5110929;28;20024;-74
2021/03/29 01:13:04;;;;;;;18.37;5.73;;;;;;;8.10;77.40;102587.09;5112199;28;20030;-74
2021/03/29 01:15:30;;;;;;;16.23;6.57;;;;;;;8.08;78.05;102588.66;5104708;28;20270;-74
2021/03/29 01:17:56;;;;;;;18.42;6.07;;;;;;;8.15;77.42;102577.16;5092165;28;20016;-75
2021/03/29 01:20:29;;;;;;;;;;;;;;;8.09;77.73;102573.41;5111918;28;20047;-72
2021/03/29 01:22:56;;;;;;;19.57;5.70;;;;;;;8.20;77.44;102562.97;5113600;28;19912;-74
2021/03/29 01:25:27;;;;;;;23.43;6.80;;;;;;;8.16;77.89;102568.69;5113464;28;20019;-75
2021/03/29 01:27:57;;;;;;;20.93;6.47;;;;;;;8.15;77.85;102574.59;5093147;28;20028;-75
2021/03/29 01:30:23;;;;;;;13.63;5.80;;;;;;;8.13;77.31;102574.50;5092832;28;20028;-73
2021/03/29 01:32:49;;;;;;;;;;;;;;;8.20;77.67;102575.75;5093224;28;20027;-74
2021/03/29 01:35:36;;;;;;;15.43;6.60;;;;;;;8.11;77.79;102574.38;5092363;28;20487;-75
2021/03/29 01:38:03;;;;;;;11.98;6.65;;;;;;;8.16;77.98;102577.25;5093076;28;20362;-75
2021/03/29 01:40:29;;;;;;;17.47;6.50;;;;;;;8.04;78.24;102582.47;5105984;28;20031;-73
2021/03/29 01:42:56;;;;;;;18.17;6.57;;;;;;;7.93;78.65;102583.50;5103923;28;20024;-75
2021/03/29 01:45:23;;;;;;;16.03;6.73;;;;;;;7.98;78.75;102574.44;5092636;28;20036;-75
2021/03/29 01:47:49;;;;;;;18.53;7.17;;;;;;;8.02;78.78;102567.81;5097725;28;20023;-74
2021/03/29 01:50:22;;;;;;;18.80;7.18;;;;;;;8.00;78.65;102575.41;5111741;28;20492;-76
2021/03/29 01:52:48;;;;;;;16.87;6.77;;;;;;;7.91;79.03;102572.28;5111553;28;20501;-75
2021/03/29 01:55:14;;;;;;;14.80;6.25;;;;;;;7.81;79.16;102580.19;5112850;28;20028;-73
2021/03/29 01:57:39;;;;;;;21.55;6.40;;;;;;;7.81;79.52;102585.31;5110191;28;20507;-75
2021/03/29 02:00:12;;;;;;;19.98;6.88;;;;;;;7.88;79.02;102579.78;5112927;27;20031;-75
2021/03/29 02:02:37;;;;;;;18.70;7.07;;;;;;;7.84;79.21;102582.94;5090045;28;20107;-75
2021/03/29 02:05:11;;;;;;;20.15;5.93;;;;;;;7.89;79.02;102594.34;5104107;28;20106;-75
2021/03/29 02:07:37;;;;;;;16.87;6.33;;;;;;;7.89;78.86;102584.09;5093330;28;20409;-76
2021/03/29 02:10:12;;;;;;;13.70;5.90;;;;;;;7.85;79.46;102586.38;5091177;28;20024;-75
2021/03/29 02:12:39;;;;;;;22.57;7.57;;;;;;;7.80;79.44;102586.06;5105729;28;20115;-75
2021/03/29 02:15:09;;;;;;;18.57;6.70;;;;;;;7.85;79.51;102584.72;5111280;28;20019;-75
2021/03/29 02:17:37;;;;;;;15.43;6.40;;;;;;;7.92;79.27;102578.28;5082881;28;20026;-75
2021/03/29 02:20:12;;;;;;;12.97;6.17;;;;;;;7.83;79.54;102576.06;5109951;28;20164;-74
2021/03/29 02:22:39;;;;;;;18.77;6.57;;;;;;;7.81;79.42;102582.75;5110928;28;20030;-73
2021/03/29 02:25:07;;;;;;;16.57;7.63;;;;;;;7.78;79.43;102590.22;5101500;28;20016;-75
2021/03/29 02:27:37;;;;;;;14.57;7.10;;;;;;;7.88;79.46;102586.56;5095049;28;20098;-75
2021/03/29 02:30:26;;;;;;;16.50;6.13;;;;;;;7.78;79.68;102592.75;5110811;28;20053;-75
2021/03/29 02:32:52;;;;;;;14.77;6.13;;;;;;;7.70;79.77;102587.16;5112276;28;20019;-75
2021/03/29 02:35:19;;;;;;;;;;;;;;;7.71;79.67;102586.38;5113135;28;20059;-75
2021/03/29 02:37:53;;;;;;;16.65;5.75;;;;;;;7.67;79.94;102581.88;5112394;28;19919;-75
2021/03/29 02:40:20;;;;;;;14.40;6.07;;;;;;;7.64;80.00;102586.78;5110806;28;20031;-75
2021/03/29 02:42:47;;;;;;;16.73;6.70;;;;;;;7.80;79.75;102575.84;5095252;28;20051;-75
2021/03/29 02:45:15;;;;;;;15.47;6.20;;;;;;;7.85;79.29;102582.16;5088943;28;20095;-75
2021/03/29 02:47:42;;;;;;;15.80;6.60;;;;;;;7.78;79.30;102591.09;5091523;28;20028;-75
2021/03/29 02:50:14;;;;;;;14.60;6.33;;;;;;;7.77;79.37;102583.31;5091451;28;20062;-73
2021/03/29 02:52:41;;;;;;;20.27;6.87;;;;;;;7.77;79.26;102589.31;5105770;28;20457;-76
2021/03/29 02:55:09;;;;;;;14.03;5.43;;;;;;;7.83;79.06;102588.84;5111571;28;20023;-74
2021/03/29 02:57:39;;;;;;;17.00;6.10;;;;;;;7.80;79.35;102588.63;5110435;28;20034;-76
2021/03/29 03:00:17;;;;;;;17.30;5.67;;;;;;;7.63;80.03;102579.91;5103107;28;20053;-76
2021/03/29 03:02:44;;;;;;;17.53;5.10;;;;;;;7.81;79.24;102577.63;5090910;28;20059;-74
2021/03/29 03:05:11;;;;;;;13.33;5.50;;;;;;;7.75;79.29;102584.91;5090309;28;20469;-75
2021/03/29 03:07:36;;;;;;;12.40;5.40;;;;;;;7.66;79.76;102580.09;5090215;28;20047;-75
2021/03/29 03:10:05;;;;;;;15.30;5.80;;;;;;;7.67;79.94;102580.97;5089976;28;20032;-75
2021/03/29 03:12:31;;;;;;;15.47;5.97;;;;;;;7.75;79.59;102575.56;5090878;28;20031;-76
2021/03/29 03:14:56;;;;;;;14.07;5.22;;;;;;;7.80;79.05;102573.28;5111107;28;20023;-74
2021/03/29 03:17:23;;;;;;;17.52;5.72;;;;;;;7.64;80.01;102575.69;5110163;28;20023;-75
2021/03/29 03:19:48;;;;;;;16.03;5.80;;;;;;;7.68;79.57;102587.88;5095515;28;20031;-75
2021/03/29 03:22:14;;;;;;;13.10;5.57;;;;;;;7.69;79.75;102574.28;5091088;28;20024;-75
2021/03/29 03:24:39;;;;;;;17.65;5.97;;;;;;;7.61;80.09;102565.25;5101051;28;20028;-75
2021/03/29 03:27:07;;;;;;;19.67;5.07;;;;;;;7.65;79.67;102564.66;5093810;28;20052;-75
2021/03/29 03:29:33;;;;;;;13.00;5.10;;;;;;;7.67;79.47;102551.16;5089367;28;20133;-75
2021/03/29 03:31:58;;;;;;;;;;;;;;;7.76;79.52;102566.19;5090154;28;20073;-75
2021/03/29 03:34:24;;;;;;;13.60;4.57;;;;;;;7.76;79.27;102563.63;5094552;28;19912;-76
2021/03/29 03:36:49;;;;;;;16.40;4.30;;;;;;;7.76;79.44;102566.19;5108002;28;20040;-76
2021/03/29 03:39:15;;;;;;;7.82;4.28;;;;;;;7.73;79.34;102577.13;5110606;28;20020;-73
2021/03/29 03:41:42;;;;;;;20.17;4.68;;;;;;;7.71;79.56;102560.81;5099743;28;20535;-75
2021/03/29 03:44:08;;;;;;;12.20;4.60;;;;;;;7.66;79.81;102580.09;5097014;28;20043;-76
2021/03/29 03:46:37;;;;;;;;;;;;;;;7.64;79.72;102578.22;5089709;28;20073;-75
2021/03/29 03:49:09;;;;;;;14.93;4.57;;;;;;;7.64;79.89;102585.91;5090312;28;19911;-75
2021/03/29 03:51:35;;;;;;;10.10;4.20;;;;;;;7.63;80.02;102576.47;5090160;28;20035;-77
2021/03/29 03:54:01;;;;;;;15.35;4.68;;;;;;;7.68;79.75;102578.53;5089043;28;20047;-74
2021/03/29 03:56:31;;;;;;;14.57;5.05;;;;;;;7.59;79.97;102582.19;5097570;28;20026;-75
2021/03/29 03:58:57;;;;;;;11.50;4.17;;;;;;;7.68;79.82;102586.19;5094720;28;20102;-74
2021/03/29 04:01:23;;;;;;;18.52;4.75;;;;;;;7.71;79.14;102581.25;5097109;28;20111;-75
2021/03/29 04:03:48;;;;;;;16.98;4.38;;;;;;;7.65;79.61;102595.34;5108243;28;20110;-76
2021/03/29 04:06:13;;;;;;;15.83;4.50;;;;;;;7.68;79.83;102596.41;5111345;28;20138;-75
2021/03/29 04:08:39;;;;;;;12.60;4.77;;;;;;;7.56;80.20;102599.88;5110158;28;20008;-74
2021/03/29 04:11:06;;;;;;;11.60;3.75;;;;;;;7.46;80.59;102599.28;5102504;28;20349;-76
2021/03/29 04:13:31;;;;;;;15.70;4.70;;;;;;;7.51;80.16;102598.72;5101338;28;20027;-75
2021/03/29 04:15:59;;;;;;;12.27;4.40;;;;;;;7.44;80.94;102608.53;5107356;28;20016;-75
2021/03/29 04:18:25;;;;;;;18.30;4.50;;;;;;;7.42;81.10;102602.44;5110357;28;20385;-75
2021/03/29 04:20:51;;;;;;;12.02;3.78;;;;;;;7.42;81.11;102599.88;5105484;28;21480;-75
2021/03/29 04:23:17;;;;;;;;;;;;;;;7.35;81.27;102597.72;5090475;28;20032;-75
2021/03/29 04:25:43;;;;;;;18.00;4.60;;;;;;;7.37;81.28;102600.34;5088769;28;19912;-75
2021/03/29 04:28:08;;;;;;;13.00;4.07;;;;;;;7.50;81.22;102597.81;5102348;28;20042;-75
2021/03/29 04:30:34;;;;;;;16.20;4.43;;;;;;;7.44;81.21;102600.84;5103916;28;20063;-74
2021/03/29 04:32:59;;;;;;;16.27;4.32;;;;;;;7.43;81.08;102603.31;5088573;28;20084;-76
2021/03/29 04:35:25;;;;;;;16.33;4.30;;;;;;;7.35;81.54;102613.03;5088795;28;20027;-76
2021/03/29 04:37:53;;;;;;;14.10;3.97;;;;;;;7.39;81.42;102611.56;5088852;28;20024;-75
2021/03/29 04:40:20;;;;;;;14.27;3.80;;;;;;;7.38;81.16;102608.13;5088332;28;20096;-74
2021/03/29 04:42:46;;;;;;;14.37;4.37;;;;;;;7.33;81.30;102604.41;5089516;28;20024;-76
2021/03/29 04:45:12;;;;;;;11.00;4.25;;;;;;;7.26;81.56;102609.91;5089421;28;20389;-75
2021/03/29 04:47:38;;;;;;;10.23;4.35;;;;;;;7.23;81.62;102609.72;5088154;28;20027;-75
2021/03/29 04:50:04;;;;;;;16.73;4.28;;;;;;;7.21;82.24;102598.50;5093735;28;20027;-76
2021/03/29 04:52:30;;;;;;;12.43;4.67;;;;;;;7.21;82.23;102607.84;5092170;28;20077;-76
2021/03/29 04:54:55;;;;;;;9.32;3.80;;;;;;;7.15;82.45;102605.75;5088247;28;20024;-76
2021/03/29 04:57:20;;;;;;;11.23;4.90;;;;;;;7.09;82.53;102608.78;5089430;28;20492;-73
2021/03/29 04:59:46;;;;;;;15.30;4.60;;;;;;;7.00;82.49;102613.28;5098253;28;20273;-75
2021/03/29 05:02:11;;;;;;;15.57;4.35;;;;;;;7.05;83.21;102613.59;5109229;28;20480;-74
2021/03/29 05:04:36;;;;;;;19.67;4.75;;;;;;;6.96;83.50;102624.09;5100614;28;20114;-75
2021/03/29 05:07:10;;;;;;;13.40;3.83;;;;;;;6.96;82.90;102613.88;5090283;28;20058;-76
2021/03/29 05:09:36;;;;;;;11.73;4.60;;;;;;;6.98;83.58;102613.97;5097782;28;20424;-76
2021/03/29 05:12:10;;;;;;;16.27;5.10;;;;;;;6.97;83.31;102613.09;5095109;28;20024;-75
2021/03/29 05:14:37;;;;;;;12.20;4.27;;;;;;;6.98;83.20;102606.31;5101100;28;20028;-76
2021/03/29 05:17:04;;;;;;;16.80;4.20;;;;;;;6.98;83.91;102614.88;5096481;28;20474;-76
2021/03/29 05:19:29;;;;;;;14.03;3.83;;;;;;;6.97;83.75;102628.41;5093643;28;20012;-75
2021/03/29 05:21:55;;;;;;;11.55;3.88;;;;;;;6.99;83.67;102628.53;5099429;28;20084;-75
2021/03/29 05:24:20;;;;;;;18.33;4.20;;;;;;;7.02;83.98;102623.63;5096093;28;20028;-76
2021/03/29 05:26:46;;;;;;;14.68;4.53;;;;;;;6.99;83.91;102626.84;5099215;28;20643;-75
2021/03/29 05:29:11;;;;;;;10.43;4.32;;;;;;;6.96;84.17;102636.88;5096428;28;20370;-75
2021/03/29 05:31:40;;;;;;;21.38;4.32;;;;;;;6.98;84.19;102645.53;5094989;28;20039;-75
2021/03/29 05:34:11;;;;;;;13.60;3.93;;;;;;;7.02;84.32;102647.50;5090687;28;20016;-75
2021/03/29 05:36:37;;;;;;;19.03;3.93;;;;;;;7.09;84.13;102656.44;5088780;28;20027;-76
2021/03/29 05:39:04;;;;;;;15.57;4.47;;;;;;;6.97;84.32;102653.97;5087768;28;20685;-75
2021/03/29 05:41:30;;;;;;;9.30;3.10;;;;;;;7.02;84.64;102656.81;5088880;28;20027;-75
2021/03/29 05:43:55;;;;;;;12.98;4.28;;;;;;;7.17;83.72;102647.66;5103179;28;20028;-75
2021/03/29 05:46:21;;;;;;;16.67;4.68;;;;;;;7.10;83.85;102663.34;5109138;28;20440;-75
2021/03/29 05:48:46;;;;;;;10.90;3.75;;;;;;;7.11;84.35;102652.31;5107685;28;20027;-75
2021/03/29 05:51:11;;;;;;;12.43;4.00;;;;;;;7.11;83.75;102660.00;5107792;28;20035;-75
2021/03/29 05:53:37;;;;;;;14.90;4.20;;;;;;;7.11;84.21;102653.22;5109204;28;20029;-75
2021/03/29 05:56:03;;;;;;;13.60;4.20;;;;;;;7.18;84.18;102655.41;5090049;28;20282;-75
2021/03/29 05:58:34;;;;;;;13.77;4.67;;;;;;;7.26;84.19;102652.47;5092648;28;20020;-75
2021/03/29 06:00:59;;;;;;;12.17;4.17;;;;;;;7.31;83.76;102662.22;5089677;28;20028;-75
2021/03/29 06:03:26;;;;;;;14.30;4.80;;;;;;;7.59;82.88;102669.13;5092487;28;20396;-75
2021/03/29 06:06:00;;;;;;;12.43;4.50;;;;;;;7.62;82.57;102671.88;5091656;28;20031;-74
2021/03/29 06:08:26;;;;;;;18.53;4.47;;;;;;;7.79;82.19;102677.28;5092372;28;20031;-75
2021/03/29 06:10:54;;;;;;;14.60;4.27;;;;;;;8.05;81.29;102675.50;5092051;28;20032;-75
2021/03/29 06:13:29;;;;;;;15.90;4.50;;;;;;;8.54;80.25;102679.50;5091209;28;20024;-76
2021/03/29 06:16:10;;;;;;;15.33;4.23;;;;;;;8.78;78.68;102680.09;5103993;28;20485;-74
2021/03/29 06:18:50;;;;;;;11.30;3.73;;;;;;;9.30;76.72;102686.63;5092259;28;20504;-74
2021/03/29 06:21:15;;;;;;;13.33;3.90;;;;;;;9.71;76.55;102685.53;5090219;28;20020;-75
2021/03/29 06:23:43;;;;;;;15.48;4.10;;;;;;;10.14;74.46;102677.66;5092166;28;20073;-74
2021/03/29 06:26:28;;;;;;;7.95;3.72;;;;;;;10.39;72.90;102683.34;5099432;28;20102;-75
2021/03/29 06:28:54;;;;;;;14.75;4.30;;;;;;;10.64;71.98;102687.22;5110935;28;20088;-75
2021/03/29 06:31:30;;;;;;;11.80;3.53;;;;;;;11.13;70.41;102686.41;5110764;28;20496;-75
2021/03/29 06:33:57;;;;;;;12.27;3.47;;;;;;;11.64;69.18;102679.50;5112217;28;20035;-76
2021/03/29 06:36:32;;;;;;;13.32;3.58;;;;;;;11.53;67.45;102679.00;5109385;28;20031;-75
2021/03/29 06:39:17;;;;;;;13.60;3.53;;;;;;;11.96;66.87;102685.34;5090530;28;20524;-75
2021/03/29 06:41:54;;;;;;;9.73;3.28;;;;;;;12.12;66.19;102680.13;5090355;28;20085;-74
2021/03/29 06:44:31;;;;;;;;;;;;;;;12.51;65.65;102680.19;5090792;28;20034;-75
2021/03/29 06:47:04;;;;;;;10.27;2.95;;;;;;;12.87;64.60;102674.06;5102108;28;19912;-75
2021/03/29 06:49:37;;;;;;;7.68;3.33;;;;;;;12.97;63.27;102676.22;5097508;28;20020;-75
2021/03/29 06:52:18;;;;;;;12.27;3.50;;;;;;;13.57;63.04;102687.38;5093388;28;20032;-75
2021/03/29 06:54:43;;;;;;;10.55;3.00;;;;;;;13.75;62.11;102688.97;5090227;28;20023;-73
2021/03/29 06:57:09;;;;;;;9.52;3.20;;;;;;;14.03;59.95;102684.09;5091434;28;20023;-76
2021/03/29 06:59:36;;;;;;;12.73;3.38;;;;;;;14.37;60.14;102690.53;5090218;28;21676;-75
2021/03/29 07:02:06;;;;;;;11.98;3.33;;;;;;;13.66;59.42;102697.25;5089953;28;20489;-74
2021/03/29 07:04:33;;;;;;;8.90;3.10;;;;;;;13.84;61.46;102699.66;5091476;28;20028;-73
2021/03/29 07:07:00;;;;;;;12.73;3.58;;;;;;;14.30;59.91;102705.78;5089739;28;20055;-73
2021/03/29 07:09:26;;;;;;;13.88;3.33;;;;;;;15.05;59.02;102705.13;5090159;28;20031;-74
2021/03/29 07:11:53;;;;;;;15.38;3.10;;;;;;;15.41;56.38;102708.97;5089588;28;20028;-74
2021/03/29 07:14:21;;;;;;;12.48;3.22;;;;;;;15.68;56.19;102713.34;5090088;28;20111;-73
2021/03/29 07:16:47;;;;;;;10.25;2.72;;;;;;;15.44;54.98;102715.97;5102828;28;20027;-75
2021/03/29 07:19:13;;;;;;;;;;;;;;;15.95;55.84;102721.13;5109420;28;20461;-74
2021/03/29 07:21:39;;;;;;;12.60;3.38;;;;;;;16.09;54.61;102723.31;5109624;28;19912;-75
2021/03/29 07:24:08;;;;;;;;;;;;;;;16.72;53.31;102723.50;5110500;28;20118;-74
2021/03/29 07:26:38;;;;;;;9.75;3.33;;;;;;;17.49;50.96;102723.84;5110069;28;19964;-75
2021/03/29 07:29:24;;;;;;;10.55;3.15;;;;;;;17.53;51.84;102727.38;5109808;28;20023;-74
2021/03/29 07:31:55;;;;;;;11.82;3.50;;;;;;;17.66;50.35;102719.06;5108203;28;20110;-75
2021/03/29 07:34:49;;;;;;;10.40;3.10;;;;;;;17.01;52.33;102715.66;5109873;28;20043;-73
2021/03/29 07:37:27;;;;;;;11.77;3.03;;;;;;;17.76;50.42;102718.47;5109270;28;20058;-74
2021/03/29 07:39:53;;;;;;;9.75;2.90;;;;;;;17.61;51.24;102721.56;5096390;28;20077;-72
2021/03/29 07:42:33;;;;;;;9.05;2.83;;;;;;;17.02;50.10;102717.41;5086369;28;20024;-74
2021/03/29 07:45:10;;;;;;;12.57;3.15;;;;;;;17.84;50.19;102727.31;5087317;28;20024;-74
2021/03/29 07:47:45;;;;;;;15.18;3.50;;;;;;;17.76;51.02;102722.78;5101507;28;20027;-76
2021/03/29 07:50:23;;;;;;;11.88;3.00;;;;;;;17.66;50.88;102716.47;5109747;28;20575;-74
2021/03/29 07:52:51;;;;;;;11.88;3.58;;;;;;;17.97;50.65;102721.59;5109616;28;20023;-74
2021/03/29 07:55:22;;;;;;;11.05;2.75;;;;;;;18.32;48.56;102726.72;5109471;28;20031;-75
2021/03/29 07:57:51;;;;;;;10.57;2.92;;;;;;;19.14;46.75;102733.59;5108244;28;20051;-75
2021/03/29 08:00:22;;;;;;;15.90;3.40;;;;;;;19.53;47.04;102736.09;5109471;28;20024;-75
2021/03/29 08:02:48;;;;;;;9.38;2.60;;;;;;;19.64;45.65;102741.47;5108212;28;20058;-74
2021/03/29 08:05:15;;;;;;;12.60;2.95;;;;;;;19.74;46.31;102748.59;5109275;28;20165;-74
2021/03/29 08:07:44;;;;;;;8.98;2.83;;;;;;;19.81;45.13;102737.41;5108927;28;20028;-75
2021/03/29 08:10:12;;;;;;;9.35;3.63;;;;;;;19.99;44.59;102743.75;5088142;28;20494;-76
2021/03/29 08:13:00;;;;;;;8.38;2.47;;;;;;;20.26;45.42;102746.78;5087372;28;20031;-74
2021/03/29 08:16:02;;;;;;;15.30;4.18;;;;;;;19.74;45.73;102756.41;5088599;28;20028;-76
2021/03/29 08:18:28;;;;;;;18.33;5.22;;;;;;;20.00;46.10;102755.97;5088436;28;20062;-75
2021/03/29 08:20:54;;;;;;;33.50;4.07;;;;;;;20.26;44.70;102765.06;5087289;28;20020;-76
2021/03/29 08:23:37;;;;;;;29.40;3.72;;;;;;;21.04;43.37;102756.50;5088994;28;20035;-75
2021/03/29 08:26:20;;;;;;;46.83;4.43;;;;;;;21.57;43.54;102752.69;5087403;28;20480;-73
2021/03/29 08:29:10;;;;;;;27.38;3.88;;;;;;;20.55;44.59;102770.72;5087773;28;20020;-76
2021/03/29 08:32:02;;;;;;;53.70;5.70;;;;;;;21.82;42.26;102756.38;5088446;28;20032;-76
2021/03/29 08:34:30;;;;;;;65.18;6.70;;;;;;;21.62;42.20;102759.72;5059007;28;20036;-75
2021/03/29 08:36:59;;;;;;;23.95;3.83;;;;;;;21.88;41.20;102766.91;5089407;28;20397;-76
2021/03/29 08:39:24;;;;;;;15.30;3.53;;;;;;;20.49;43.69;102768.91;5088994;28;20077;-75
2021/03/29 08:41:53;;;;;;;27.63;3.97;;;;;;;21.36;42.86;102756.84;5088444;28;20409;-75
2021/03/29 08:44:19;;;;;;;17.65;3.67;;;;;;;21.28;40.95;102765.50;5088655;28;20028;-75
2021/03/29 08:46:46;;;;;;;12.48;3.20;;;;;;;21.34;41.27;102766.41;5088014;28;20020;-75
2021/03/29 08:49:12;;;;;;;44.75;4.22;;;;;;;21.07;42.25;102766.97;5089609;28;20039;-76
2021/03/29 08:51:37;;;;;;;52.42;4.95;;;;;;;21.06;43.74;102775.66;5088404;28;20481;-75
2021/03/29 08:54:07;;;;;;;27.70;3.83;;;;;;;20.92;42.61;102772.03;5098382;28;20061;-75
2021/03/29 08:56:44;;;;;;;12.90;3.40;;;;;;;21.45;41.97;102776.97;5108501;28;20164;-76
2021/03/29 08:59:11;;;;;;;12.93;2.80;;;;;;;21.88;40.40;102775.63;5110113;28;20155;-75
2021/03/29 09:01:39;;;;;;;11.05;3.22;;;;;;;22.30;39.14;102787.28;5109645;28;20114;-76
2021/03/29 09:04:11;;;;;;;11.07;2.97;;;;;;;22.82;37.60;102798.94;5110265;28;20015;-75
2021/03/29 09:06:37;;;;;;;8.75;2.85;;;;;;;22.55;38.10;102801.41;5110095;28;20059;-76
2021/03/29 09:09:17;;;;;;;10.45;3.17;;;;;;;22.12;38.58;102813.34;5105976;28;20046;-76
2021/03/29 09:11:44;;;;;;;11.35;3.08;;;;;;;22.61;39.58;102807.53;5087575;28;20036;-75
2021/03/29 09:14:11;;;;;;;13.68;3.88;;;;;;;22.84;38.06;102809.44;5089371;28;20028;-76
2021/03/29 09:16:39;;;;;;;8.60;2.60;;;;;;;23.04;37.91;102809.50;5089453;28;20481;-76
2021/03/29 09:19:18;;;;;;;13.05;3.38;;;;;;;23.24;39.35;102824.41;5089548;28;20020;-75
2021/03/29 09:21:51;;;;;;;9.73;3.30;;;;;;;23.37;38.31;102832.31;5087462;28;20024;-76
2021/03/29 09:24:17;;;;;;;10.57;3.05;;;;;;;23.74;35.50;102828.94;5088313;28;20059;-76
2021/03/29 09:26:43;;;;;;;10.80;3.30;;;;;;;23.82;37.76;102832.44;5096438;28;20034;-76
2021/03/29 09:29:31;;;;;;;10.68;3.65;;;;;;;24.19;36.78;102837.66;5105195;28;20028;-77
2021/03/29 09:31:58;;;;;;;11.40;2.90;;;;;;;24.58;36.57;102842.00;5106188;28;20034;-76
2021/03/29 09:34:23;;;;;;;13.68;3.15;;;;;;;25.04;35.24;102844.47;5113815;28;20034;-76
2021/03/29 09:36:48;;;;;;;13.40;3.20;;;;;;;25.25;34.12;102839.09;5099918;28;20485;-75
2021/03/29 09:39:14;;;;;;;8.32;3.03;;;;;;;24.98;33.05;102837.50;5113858;28;20472;-75
2021/03/29 09:41:49;;;;;;;11.50;3.20;;;;;;;24.96;33.84;102857.63;5113463;28;20491;-76
2021/03/29 09:44:14;;;;;;;12.57;3.22;;;;;;;24.11;35.24;102856.06;5113438;28;20019;-76
2021/03/29 09:46:39;;;;;;;9.32;2.92;;;;;;;24.03;35.64;102854.28;5112049;28;20030;-73
2021/03/29 09:49:06;;;;;;;8.82;3.17;;;;;;;23.73;37.31;102848.16;5113460;28;20384;-75
2021/03/29 09:51:32;;;;;;;14.98;3.80;;;;;;;24.43;34.93;102853.44;5112104;28;20660;-76
2021/03/29 09:53:57;;;;;;;12.23;3.53;;;;;;;24.20;35.89;102848.16;5113385;28;20023;-76
2021/03/29 09:56:27;;;;;;;10.10;3.47;;;;;;;24.07;34.53;102851.69;5112030;28;20034;-76
2021/03/29 09:58:52;;;;;;;13.88;3.63;;;;;;;23.74;36.90;102846.41;5113361;28;20019;-75
2021/03/29 10:01:25;;;;;;;10.15;3.08;;;;;;;24.90;35.50;102851.53;5113034;28;20131;-75
2021/03/29 10:04:01;;;;;;;11.50;2.97;;;;;;;25.89;33.41;102851.84;5113230;28;20507;-75
2021/03/29 10:06:29;;;;;;;10.90;2.97;;;;;;;26.29;32.90;102856.75;5113259;28;20027;-76
2021/03/29 10:09:01;;;;;;;11.13;3.50;;;;;;;25.72;32.43;102845.88;5111878;28;20026;-75
2021/03/29 10:11:27;;;;;;;11.52;3.42;;;;;;;26.32;32.43;102849.69;5112975;28;20421;-76
2021/03/29 10:14:04;;;;;;;12.23;3.20;;;;;;;25.90;32.87;102852.72;5097530;28;20023;-77
2021/03/29 10:16:30;;;;;;;13.10;3.55;;;;;;;25.35;33.70;102848.69;5092663;28;20508;-76
2021/03/29 10:19:12;;;;;;;13.95;3.58;;;;;;;24.26;34.00;102862.16;5095287;28;20028;-73
2021/03/29 10:21:59;;;;;;;9.55;3.63;;;;;;;25.17;33.63;102871.59;5112397;27;20098;-76
2021/03/29 10:24:24;;;;;;;8.23;2.78;;;;;;;24.60;33.64;102870.88;5112759;28;20019;-75
2021/03/29 10:27:01;;;;;;;10.43;2.65;;;;;;;25.49;34.02;102879.31;5111689;28;20039;-76
2021/03/29 10:29:37;;;;;;;12.05;3.38;;;;;;;24.86;34.16;102871.69;5111377;28;20030;-75
2021/03/29 10:32:06;;;;;;;12.98;3.45;;;;;;;25.04;33.40;102876.03;5112485;28;20020;-76
2021/03/29 10:34:34;;;;;;;9.00;2.65;;;;;;;25.46;33.17;102868.81;5098969;28;20393;-75
2021/03/29 10:36:59;;;;;;;10.50;3.38;;;;;;;24.62;33.08;102864.75;5092283;28;20020;-75
2021/03/29 10:39:24;;;;;;;15.35;3.08;;;;;;;24.91;34.32;102863.78;5097905;28;20404;-76
2021/03/29 10:41:50;;;;;;;13.63;3.30;;;;;;;24.79;33.64;102868.22;5111787;28;20067;-76
2021/03/29 10:44:15;;;;;;;11.95;3.13;;;;;;;24.83;33.16;102872.59;5112062;28;20028;-77
2021/03/29 10:46:42;;;;;;;9.50;2.80;;;;;;;25.05;31.78;102870.78;5112459;28;20634;-75
2021/03/29 10:49:09;;;;;;;10.23;3.50;;;;;;;24.26;34.80;102872.66;5110658;28;20019;-75
2021/03/29 10:51:35;;;;;;;9.48;3.25;;;;;;;24.63;34.42;102874.38;5112107;28;20602;-75
2021/03/29 10:54:01;;;;;;;11.02;3.53;;;;;;;24.92;32.49;102878.69;5111921;28;20043;-75
2021/03/29 10:56:26;;;;;;;10.43;3.15;;;;;;;25.07;34.02;102876.91;5111441;28;20110;-76
2021/03/29 10:58:51;;;;;;;11.82;3.25;;;;;;;23.91;34.50;102873.53;5109378;28;20046;-74
2021/03/29 11:01:16;;;;;;;10.55;3.30;;;;;;;23.90;32.82;102877.03;5111005;28;20446;-76
2021/03/29 11:03:42;;;;;;;11.70;3.40;;;;;;;23.45;33.83;102881.31;5111489;28;20135;-75
2021/03/29 11:06:07;;;;;;;8.75;2.97;;;;;;;23.27;33.82;102886.50;5111657;28;20511;-75
2021/03/29 11:08:32;;;;;;;17.48;4.05;;;;;;;23.73;34.80;102879.63;5109983;28;20019;-75
2021/03/29 11:10:57;;;;;;;9.82;2.85;;;;;;;24.07;34.28;102877.06;5110825;28;20028;-75
2021/03/29 11:13:23;;;;;;;13.85;3.25;;;;;;;23.58;33.26;102875.25;5098768;28;20028;-74
2021/03/29 11:15:49;;;;;;;18.67;2.95;;;;;;;24.25;32.44;102879.66;5089460;28;20103;-72
2021/03/29 11:18:14;;;;;;;10.38;3.10;;;;;;;24.36;32.37;102875.31;5089661;28;20028;-72
2021/03/29 11:20:39;;;;;;;14.30;3.60;;;;;;;24.15;32.72;102881.44;5089724;28;20028;-75
2021/03/29 11:23:05;;;;;;;15.82;4.10;;;;;;;23.48;34.32;102883.06;5091484;28;20027;-75
2021/03/29 11:25:30;;;;;;;10.85;3.40;;;;;;;24.18;31.43;102881.44;5092216;28;20370;-75
2021/03/29 11:27:55;;;;;;;10.75;3.78;;;;;;;24.51;32.22;102877.91;5092111;28;20026;-74
2021/03/29 11:30:21;;;;;;;9.90;3.08;;;;;;;23.98;31.21;102872.66;5090937;28;20024;-73
2021/03/29 11:32:47;;;;;;;12.13;3.45;;;;;;;23.69;32.24;102864.75;5091935;28;20024;-76